Terminal Aerodrome Forecast
Issued by NWS

Home | Current Version | Previous Version | Text Only | Print | Product List | Glossary On
Versions: 1 2 3 4 5 6 7 8 9 10 11 12 13 14 15 16 17 18 19 20 21 22 23 24 25 26 27 28 29 30 31 32 33 34 35 36 37 38 39 40 41 42 43 44 45 46 47 48 49 50
000
FTUS41 KCTP 232122 AAB
TAFAOO
TAF AMD
KAOO 232122Z 2321/2418 28012KT P6SM VCTS BKN040CB BKN100
      TEMPO 2322/2324 28010KT 4SM -TSRA OVC030CB
     FM240000 31010G17KT P6SM VCSH BKN030
     FM240400 32008KT 5SM BR SCT020 BKN080
     FM240800 33005KT 5SM BR BKN025
     FM241200 35009KT P6SM SCT040=

USA.gov is the U.S. government's official web portal to all federal, state and local government web resources and services.